sensor_id;sensor_type;location;lat;lon;timestamp;temperature;humidity
38936;DHT22;66589;47.458;9.644;2023-05-10T03:16:16;14.60;97.40
38936;DHT22;66589;47.458;9.644;2023-05-10T03:18:54;14.70;98.00
38936;DHT22;66589;47.458;9.644;2023-05-10T03:21:22;14.70;97.80
38936;DHT22;66589;47.458;9.644;2023-05-10T03:23:58;14.70;98.40
38936;DHT22;66589;47.458;9.644;2023-05-10T03:26:27;14.60;98.80
38936;DHT22;66589;47.458;9.644;2023-05-10T03:28:55;14.50;99.50
38936;DHT22;66589;47.458;9.644;2023-05-10T03:31:21;14.50;99.90
38936;DHT22;66589;47.458;9.644;2023-05-10T03:33:51;14.50;99.90
38936;DHT22;66589;47.458;9.644;2023-05-10T03:36:17;14.50;99.90
38936;DHT22;66589;47.458;9.644;2023-05-10T03:38:43;14.60;99.90
38936;DHT22;66589;47.458;9.644;2023-05-10T03:41:09;14.60;99.90
38936;DHT22;66589;47.458;9.644;2023-05-10T03:43:35;14.50;99.90
38936;DHT22;66589;47.458;9.644;2023-05-10T03:46:04;14.60;99.90
38936;DHT22;66589;47.458;9.644;2023-05-10T03:48:31;14.50;99.90
38936;DHT22;66589;47.458;9.644;2023-05-10T03:50:57;14.50;99.90
38936;DHT22;66589;47.458;9.644;2023-05-10T03:53:23;14.50;99.90
38936;DHT22;66589;47.458;9.644;2023-05-10T03:55:48;14.50;99.90
38936;DHT22;66589;47.458;9.644;2023-05-10T03:58:14;14.60;99.90
38936;DHT22;66589;47.458;9.644;2023-05-10T04:00:40;14.50;99.90
38936;DHT22;66589;47.458;9.644;2023-05-10T04:03:09;14.50;99.90
38936;DHT22;66589;47.458;9.644;2023-05-10T04:05:35;14.50;99.90
38936;DHT22;66589;47.458;9.644;2023-05-10T04:08:02;14.60;99.90
38936;DHT22;66589;47.458;9.644;2023-05-10T04:10:27;14.60;99.60
38936;DHT22;66589;47.458;9.644;2023-05-10T04:12:53;14.70;99.40
38936;DHT22;66589;47.458;9.644;2023-05-10T04:15:19;14.80;99.90
38936;DHT22;66589;47.458;9.644;2023-05-10T04:17:45;14.80;99.40
38936;DHT22;66589;47.458;9.644;2023-05-10T04:20:11;14.80;99.60
38936;DHT22;66589;47.458;9.644;2023-05-10T04:22:37;14.80;99.50
38936;DHT22;66589;47.458;9.644;2023-05-10T04:25:03;14.80;98.90
38936;DHT22;66589;47.458;9.644;2023-05-10T04:27:30;14.90;99.80
38936;DHT22;66589;47.458;9.644;2023-05-10T04:29:56;14.90;99.50
38936;DHT22;66589;47.458;9.644;2023-05-10T04:32:22;15.00;98.20
38936;DHT22;66589;47.458;9.644;2023-05-10T04:34:48;15.00;98.80
38936;DHT22;66589;47.458;9.644;2023-05-10T04:37:14;15.10;98.60
38936;DHT22;66589;47.458;9.644;2023-05-10T04:39:40;15.00;98.30
38936;DHT22;66589;47.458;9.644;2023-05-10T04:42:06;15.10;98.30
38936;DHT22;66589;47.458;9.644;2023-05-10T04:44:32;15.10;97.70
38936;DHT22;66589;47.458;9.644;2023-05-10T04:46:59;15.20;98.30
38936;DHT22;66589;47.458;9.644;2023-05-10T04:49:25;15.20;97.80
38936;DHT22;66589;47.458;9.644;2023-05-10T04:51:51;15.20;97.90
38936;DHT22;66589;47.458;9.644;2023-05-10T04:54:16;15.20;98.40
38936;DHT22;66589;47.458;9.644;2023-05-10T04:56:42;15.30;98.10
38936;DHT22;66589;47.458;9.644;2023-05-10T04:59:08;15.30;97.80
38936;DHT22;66589;47.458;9.644;2023-05-10T05:01:33;15.40;96.70
38936;DHT22;66589;47.458;9.644;2023-05-10T05:04:00;15.50;96.10
38936;DHT22;66589;47.458;9.644;2023-05-10T05:06:25;15.60;95.20
38936;DHT22;66589;47.458;9.644;2023-05-10T05:08:52;15.70;96.80
38936;DHT22;66589;47.458;9.644;2023-05-10T05:11:18;15.80;96.60
38936;DHT22;66589;47.458;9.644;2023-05-10T05:13:44;16.00;95.30
38936;DHT22;66589;47.458;9.644;2023-05-10T05:16:09;16.10;94.40
38936;DHT22;66589;47.458;9.644;2023-05-10T05:18:36;16.20;94.10
38936;DHT22;66589;47.458;9.644;2023-05-10T05:21:02;16.30;93.80
38936;DHT22;66589;47.458;9.644;2023-05-10T05:23:28;16.40;94.10
38936;DHT22;66589;47.458;9.644;2023-05-10T05:25:53;16.50;94.30
38936;DHT22;66589;47.458;9.644;2023-05-10T05:28:20;16.50;94.90
38936;DHT22;66589;47.458;9.644;2023-05-10T05:30:46;16.50;94.50
38936;DHT22;66589;47.458;9.644;2023-05-10T05:33:13;16.60;94.00
38936;DHT22;66589;47.458;9.644;2023-05-10T05:35:39;16.70;94.50
38936;DHT22;66589;47.458;9.644;2023-05-10T05:38:04;16.80;93.20
38936;DHT22;66589;47.458;9.644;2023-05-10T05:40:30;16.70;92.20
38936;DHT22;66589;47.458;9.644;2023-05-10T05:42:56;16.70;92.50
38936;DHT22;66589;47.458;9.644;2023-05-10T05:45:22;16.70;93.30
38936;DHT22;66589;47.458;9.644;2023-05-10T05:47:47;16.70;93.30
38936;DHT22;66589;47.458;9.644;2023-05-10T05:50:13;16.70;94.20
38936;DHT22;66589;47.458;9.644;2023-05-10T05:52:39;16.70;93.10
38936;DHT22;66589;47.458;9.644;2023-05-10T05:55:05;16.60;93.90
38936;DHT22;66589;47.458;9.644;2023-05-10T05:57:31;16.50;94.60
38936;DHT22;66589;47.458;9.644;2023-05-10T05:59:56;16.50;95.40
38936;DHT22;66589;47.458;9.644;2023-05-10T06:02:22;16.40;90.50
38936;DHT22;66589;47.458;9.644;2023-05-10T06:04:48;16.40;91.50
38936;DHT22;66589;47.458;9.644;2023-05-10T06:07:13;16.40;92.90
38936;DHT22;66589;47.458;9.644;2023-05-10T06:09:39;16.40;93.10
38936;DHT22;66589;47.458;9.644;2023-05-10T06:12:05;16.50;91.30
38936;DHT22;66589;47.458;9.644;2023-05-10T06:14:31;16.50;91.50
38936;DHT22;66589;47.458;9.644;2023-05-10T06:16:56;16.60;92.10
38936;DHT22;66589;47.458;9.644;2023-05-10T06:19:22;16.50;91.60
38936;DHT22;66589;47.458;9.644;2023-05-10T06:21:48;16.50;91.00
38936;DHT22;66589;47.458;9.644;2023-05-10T06:24:13;16.50;91.30
38936;DHT22;66589;47.458;9.644;2023-05-10T06:26:39;16.40;90.90
38936;DHT22;66589;47.458;9.644;2023-05-10T06:29:05;16.30;91.80
38936;DHT22;66589;47.458;9.644;2023-05-10T06:31:30;16.30;90.70
38936;DHT22;66589;47.458;9.644;2023-05-10T06:33:56;16.30;91.60
38936;DHT22;66589;47.458;9.644;2023-05-10T06:36:23;16.30;91.50
38936;DHT22;66589;47.458;9.644;2023-05-10T06:38:50;16.30;92.80
38936;DHT22;66589;47.458;9.644;2023-05-10T06:41:16;16.20;92.70
38936;DHT22;66589;47.458;9.644;2023-05-10T06:43:42;16.30;92.00
38936;DHT22;66589;47.458;9.644;2023-05-10T06:46:08;16.40;92.70
38936;DHT22;66589;47.458;9.644;2023-05-10T06:48:34;16.40;92.80
38936;DHT22;66589;47.458;9.644;2023-05-10T06:51:00;16.40;91.30
38936;DHT22;66589;47.458;9.644;2023-05-10T06:53:26;16.40;90.80
38936;DHT22;66589;47.458;9.644;2023-05-10T06:55:51;16.30;90.20
38936;DHT22;66589;47.458;9.644;2023-05-10T06:58:17;16.30;90.60
38936;DHT22;66589;47.458;9.644;2023-05-10T07:00:43;16.40;91.50
38936;DHT22;66589;47.458;9.644;2023-05-10T07:03:10;16.40;91.60
38936;DHT22;66589;47.458;9.644;2023-05-10T07:05:36;16.40;90.50
38936;DHT22;66589;47.458;9.644;2023-05-10T07:08:02;16.40;90.70
38936;DHT22;66589;47.458;9.644;2023-05-10T07:10:27;16.40;90.90
38936;DHT22;66589;47.458;9.644;2023-05-10T07:12:53;16.30;91.40
38936;DHT22;66589;47.458;9.644;2023-05-10T07:15:19;16.30;91.10
38936;DHT22;66589;47.458;9.644;2023-05-10T07:17:45;16.30;91.10
38936;DHT22;66589;47.458;9.644;2023-05-10T07:20:11;16.30;91.60
38936;DHT22;66589;47.458;9.644;2023-05-10T07:22:37;16.30;90.50
38936;DHT22;66589;47.458;9.644;2023-05-10T07:25:03;16.40;91.20
38936;DHT22;66589;47.458;9.644;2023-05-10T07:27:28;16.40;90.80
38936;DHT22;66589;47.458;9.644;2023-05-10T07:29:54;16.50;90.90
38936;DHT22;66589;47.458;9.644;2023-05-10T07:32:20;16.60;92.50
38936;DHT22;66589;47.458;9.644;2023-05-10T07:34:46;16.60;91.70
38936;DHT22;66589;47.458;9.644;2023-05-10T07:37:12;16.70;91.20
38936;DHT22;66589;47.458;9.644;2023-05-10T07:39:38;16.70;91.60
38936;DHT22;66589;47.458;9.644;2023-05-10T07:42:03;16.70;92.10
38936;DHT22;66589;47.458;9.644;2023-05-10T07:44:29;16.70;92.00
38936;DHT22;66589;47.458;9.644;2023-05-10T07:46:55;16.60;92.70
38936;DHT22;66589;47.458;9.644;2023-05-10T07:49:21;16.60;93.20
38936;DHT22;66589;47.458;9.644;2023-05-10T07:51:47;16.50;92.80
38936;DHT22;66589;47.458;9.644;2023-05-10T07:54:13;16.50;92.70
38936;DHT22;66589;47.458;9.644;2023-05-10T07:56:39;16.40;91.90
38936;DHT22;66589;47.458;9.644;2023-05-10T07:59:05;16.30;93.10
38936;DHT22;66589;47.458;9.644;2023-05-10T08:01:33;16.40;93.10
38936;DHT22;66589;47.458;9.644;2023-05-10T08:03:59;16.40;93.00
38936;DHT22;66589;47.458;9.644;2023-05-10T08:06:25;16.30;93.50
38936;DHT22;66589;47.458;9.644;2023-05-10T08:08:52;16.20;91.80
38936;DHT22;66589;47.458;9.644;2023-05-10T08:11:20;16.20;92.00
38936;DHT22;66589;47.458;9.644;2023-05-10T08:13:46;16.20;91.60
38936;DHT22;66589;47.458;9.644;2023-05-10T08:16:12;16.20;92.20
38936;DHT22;66589;47.458;9.644;2023-05-10T08:18:38;16.10;92.70
38936;DHT22;66589;47.458;9.644;2023-05-10T08:21:04;16.10;92.40
38936;DHT22;66589;47.458;9.644;2023-05-10T08:23:30;16.00;92.50
38936;DHT22;66589;47.458;9.644;2023-05-10T08:25:56;15.90;91.70
38936;DHT22;66589;47.458;9.644;2023-05-10T08:28:22;15.80;92.20
38936;DHT22;66589;47.458;9.644;2023-05-10T08:30:49;15.80;92.40
38936;DHT22;66589;47.458;9.644;2023-05-10T08:33:15;15.90;92.30
38936;DHT22;66589;47.458;9.644;2023-05-10T08:35:40;15.90;92.00
38936;DHT22;66589;47.458;9.644;2023-05-10T08:38:07;15.90;91.80
38936;DHT22;66589;47.458;9.644;2023-05-10T08:40:32;16.00;91.80
38936;DHT22;66589;47.458;9.644;2023-05-10T08:43:07;16.10;91.90
38936;DHT22;66589;47.458;9.644;2023-05-10T08:45:38;16.30;92.30
38936;DHT22;66589;47.458;9.644;2023-05-10T08:48:06;16.40;92.50
38936;DHT22;66589;47.458;9.644;2023-05-10T08:50:34;16.50;92.50
38936;DHT22;66589;47.458;9.644;2023-05-10T08:53:03;16.60;92.20
38936;DHT22;66589;47.458;9.644;2023-05-10T08:55:29;16.70;92.00
38936;DHT22;66589;47.458;9.644;2023-05-10T08:57:55;16.70;91.40
38936;DHT22;66589;47.458;9.644;2023-05-10T09:00:22;16.70;91.30
38936;DHT22;66589;47.458;9.644;2023-05-10T09:02:49;16.80;91.40
38936;DHT22;66589;47.458;9.644;2023-05-10T09:05:15;16.80;90.80
38936;DHT22;66589;47.458;9.644;2023-05-10T09:07:42;16.90;91.30
38936;DHT22;66589;47.458;9.644;2023-05-10T09:10:09;16.90;90.60
38936;DHT22;66589;47.458;9.644;2023-05-10T09:12:36;17.00;89.60
38936;DHT22;66589;47.458;9.644;2023-05-10T09:15:03;17.20;90.30
38936;DHT22;66589;47.458;9.644;2023-05-10T09:17:30;17.30;90.00
38936;DHT22;66589;47.458;9.644;2023-05-10T09:19:59;17.40;87.60
38936;DHT22;66589;47.458;9.644;2023-05-10T09:22:25;17.40;86.70
38936;DHT22;66589;47.458;9.644;2023-05-10T09:25:20;17.40;86.70
38936;DHT22;66589;47.458;9.644;2023-05-10T09:27:47;17.40;87.50
38936;DHT22;66589;47.458;9.644;2023-05-10T09:32:48;17.40;87.20
38936;DHT22;66589;47.458;9.644;2023-05-10T09:35:18;17.30;86.50
38936;DHT22;66589;47.458;9.644;2023-05-10T09:37:49;17.20;86.30
38936;DHT22;66589;47.458;9.644;2023-05-10T09:40:23;17.20;86.30
38936;DHT22;66589;47.458;9.644;2023-05-10T09:43:01;17.20;86.50
38936;DHT22;66589;47.458;9.644;2023-05-10T09:45:32;17.30;85.40
38936;DHT22;66589;47.458;9.644;2023-05-10T09:47:58;17.20;85.90
38936;DHT22;66589;47.458;9.644;2023-05-10T09:50:25;17.20;85.50
38936;DHT22;66589;47.458;9.644;2023-05-10T09:53:02;17.20;85.80
38936;DHT22;66589;47.458;9.644;2023-05-10T09:55:44;17.20;85.80
38936;DHT22;66589;47.458;9.644;2023-05-10T09:58:15;17.20;86.50
38936;DHT22;66589;47.458;9.644;2023-05-10T10:00:42;17.20;86.50
38936;DHT22;66589;47.458;9.644;2023-05-10T10:03:13;17.20;84.50
38936;DHT22;66589;47.458;9.644;2023-05-10T10:05:41;17.20;85.30
38936;DHT22;66589;47.458;9.644;2023-05-10T10:08:08;17.20;85.30
38936;DHT22;66589;47.458;9.644;2023-05-10T10:10:34;17.20;85.20
38936;DHT22;66589;47.458;9.644;2023-05-10T10:13:00;17.20;83.00
38936;DHT22;66589;47.458;9.644;2023-05-10T10:15:26;17.20;83.50
38936;DHT22;66589;47.458;9.644;2023-05-10T10:17:53;17.10;82.70
38936;DHT22;66589;47.458;9.644;2023-05-10T10:20:21;17.00;82.70
38936;DHT22;66589;47.458;9.644;2023-05-10T10:22:48;16.90;82.00
38936;DHT22;66589;47.458;9.644;2023-05-10T10:25:15;16.90;84.40
38936;DHT22;66589;47.458;9.644;2023-05-10T10:35:48;17.00;84.80
38936;DHT22;66589;47.458;9.644;2023-05-10T10:38:15;17.00;83.20
38936;DHT22;66589;47.458;9.644;2023-05-10T10:40:41;17.00;82.90
38936;DHT22;66589;47.458;9.644;2023-05-10T10:43:27;17.00;83.80
38936;DHT22;66589;47.458;9.644;2023-05-10T10:46:14;17.10;85.70
38936;DHT22;66589;47.458;9.644;2023-05-10T10:48:50;17.10;83.10
38936;DHT22;66589;47.458;9.644;2023-05-10T10:51:36;17.10;83.40
38936;DHT22;66589;47.458;9.644;2023-05-10T10:54:09;17.20;83.00
38936;DHT22;66589;47.458;9.644;2023-05-10T10:56:35;17.40;81.60
38936;DHT22;66589;47.458;9.644;2023-05-10T10:59:01;17.50;80.70
38936;DHT22;66589;47.458;9.644;2023-05-10T11:01:35;17.70;78.20
38936;DHT22;66589;47.458;9.644;2023-05-10T11:06:36;18.00;79.70
38936;DHT22;66589;47.458;9.644;2023-05-10T11:09:10;18.20;78.00
38936;DHT22;66589;47.458;9.644;2023-05-10T11:11:49;18.30;79.00
38936;DHT22;66589;47.458;9.644;2023-05-10T11:14:20;18.60;77.10
38936;DHT22;66589;47.458;9.644;2023-05-10T11:16:46;18.60;75.20
38936;DHT22;66589;47.458;9.644;2023-05-10T11:19:13;18.60;72.80
38936;DHT22;66589;47.458;9.644;2023-05-10T11:21:50;18.50;72.30
38936;DHT22;66589;47.458;9.644;2023-05-10T11:24:19;18.50;73.40
38936;DHT22;66589;47.458;9.644;2023-05-10T11:26:45;18.60;73.30
38936;DHT22;66589;47.458;9.644;2023-05-10T11:29:13;18.70;72.70
38936;DHT22;66589;47.458;9.644;2023-05-10T11:31:45;18.70;70.20
38936;DHT22;66589;47.458;9.644;2023-05-10T11:34:29;18.80;72.40
38936;DHT22;66589;47.458;9.644;2023-05-10T11:36:56;18.80;68.00
38936;DHT22;66589;47.458;9.644;2023-05-10T11:39:27;18.70;70.50
38936;DHT22;66589;47.458;9.644;2023-05-10T11:41:53;18.80;68.50
38936;DHT22;66589;47.458;9.644;2023-05-10T11:44:19;18.80;68.90
38936;DHT22;66589;47.458;9.644;2023-05-10T11:46:45;18.90;69.30
38936;DHT22;66589;47.458;9.644;2023-05-10T11:49:11;18.90;66.90
38936;DHT22;66589;47.458;9.644;2023-05-10T11:51:37;18.80;66.80
38936;DHT22;66589;47.458;9.644;2023-05-10T11:54:07;18.90;69.20
38936;DHT22;66589;47.458;9.644;2023-05-10T11:56:34;19.00;69.60
38936;DHT22;66589;47.458;9.644;2023-05-10T11:59:00;19.00;67.00
38936;DHT22;66589;47.458;9.644;2023-05-10T12:01:28;18.90;67.50
38936;DHT22;66589;47.458;9.644;2023-05-10T12:03:55;18.90;68.80
38936;DHT22;66589;47.458;9.644;2023-05-10T12:06:27;18.80;67.40
38936;DHT22;66589;47.458;9.644;2023-05-10T12:08:53;18.90;68.80
38936;DHT22;66589;47.458;9.644;2023-05-10T12:11:19;18.80;70.50
38936;DHT22;66589;47.458;9.644;2023-05-10T12:13:47;19.00;69.80
38936;DHT22;66589;47.458;9.644;2023-05-10T12:16:17;19.10;69.10
38936;DHT22;66589;47.458;9.644;2023-05-10T12:18:44;19.20;70.90
38936;DHT22;66589;47.458;9.644;2023-05-10T12:21:12;19.20;68.60
38936;DHT22;66589;47.458;9.644;2023-05-10T12:23:39;19.20;70.70
38936;DHT22;66589;47.458;9.644;2023-05-10T12:26:05;19.10;68.80
38936;DHT22;66589;47.458;9.644;2023-05-10T12:28:32;19.00;69.40
38936;DHT22;66589;47.458;9.644;2023-05-10T12:31:02;18.90;70.20
38936;DHT22;66589;47.458;9.644;2023-05-10T12:33:42;18.70;70.30
38936;DHT22;66589;47.458;9.644;2023-05-10T12:36:09;18.60;71.20
38936;DHT22;66589;47.458;9.644;2023-05-10T12:38:43;18.40;72.80
38936;DHT22;66589;47.458;9.644;2023-05-10T12:41:12;18.40;72.90
38936;DHT22;66589;47.458;9.644;2023-05-10T12:43:39;18.40;74.20
38936;DHT22;66589;47.458;9.644;2023-05-10T12:46:09;18.30;73.90
38936;DHT22;66589;47.458;9.644;2023-05-10T12:48:36;18.40;74.60
38936;DHT22;66589;47.458;9.644;2023-05-10T12:51:03;18.40;74.10
38936;DHT22;66589;47.458;9.644;2023-05-10T12:53:29;18.50;74.90
38936;DHT22;66589;47.458;9.644;2023-05-10T12:55:55;18.50;75.10
38936;DHT22;66589;47.458;9.644;2023-05-10T12:58:21;18.40;74.40
38936;DHT22;66589;47.458;9.644;2023-05-10T13:00:47;18.20;74.90
38936;DHT22;66589;47.458;9.644;2023-05-10T13:03:13;18.20;75.40
38936;DHT22;66589;47.458;9.644;2023-05-10T13:05:38;18.10;76.60
38936;DHT22;66589;47.458;9.644;2023-05-10T13:08:04;18.20;75.80
38936;DHT22;66589;47.458;9.644;2023-05-10T13:10:31;18.30;77.00
38936;DHT22;66589;47.458;9.644;2023-05-10T13:12:59;18.30;75.80
38936;DHT22;66589;47.458;9.644;2023-05-10T13:15:26;18.30;74.80
38936;DHT22;66589;47.458;9.644;2023-05-10T13:17:52;18.30;73.80
38936;DHT22;66589;47.458;9.644;2023-05-10T13:20:18;18.20;74.50
38936;DHT22;66589;47.458;9.644;2023-05-10T13:22:44;18.10;75.40
38936;DHT22;66589;47.458;9.644;2023-05-10T13:25:10;18.20;73.80
38936;DHT22;66589;47.458;9.644;2023-05-10T13:27:39;18.20;75.40
38936;DHT22;66589;47.458;9.644;2023-05-10T13:30:06;18.20;72.00
38936;DHT22;66589;47.458;9.644;2023-05-10T13:32:33;18.10;72.90
38936;DHT22;66589;47.458;9.644;2023-05-10T13:34:59;18.00;72.80
38936;DHT22;66589;47.458;9.644;2023-05-10T13:37:24;17.80;74.80
38936;DHT22;66589;47.458;9.644;2023-05-10T13:39:50;17.80;75.10
38936;DHT22;66589;47.458;9.644;2023-05-10T13:42:16;17.90;76.20
38936;DHT22;66589;47.458;9.644;2023-05-10T13:44:42;17.90;74.00
38936;DHT22;66589;47.458;9.644;2023-05-10T13:47:08;17.80;75.20
38936;DHT22;66589;47.458;9.644;2023-05-10T13:49:33;17.70;75.30
38936;DHT22;66589;47.458;9.644;2023-05-10T13:52:00;17.80;75.30
38936;DHT22;66589;47.458;9.644;2023-05-10T13:54:32;17.70;74.80
38936;DHT22;66589;47.458;9.644;2023-05-10T13:56:58;17.50;74.90
38936;DHT22;66589;47.458;9.644;2023-05-10T13:59:24;17.40;76.00
38936;DHT22;66589;47.458;9.644;2023-05-10T14:01:50;17.30;77.20
38936;DHT22;66589;47.458;9.644;2023-05-10T14:04:16;17.30;77.30
38936;DHT22;66589;47.458;9.644;2023-05-10T14:06:41;17.30;78.40
38936;DHT22;66589;47.458;9.644;2023-05-10T14:09:07;17.40;77.00
38936;DHT22;66589;47.458;9.644;2023-05-10T14:11:33;17.50;77.00
38936;DHT22;66589;47.458;9.644;2023-05-10T14:13:58;17.70;77.00
38936;DHT22;66589;47.458;9.644;2023-05-10T14:16:24;17.80;76.00
38936;DHT22;66589;47.458;9.644;2023-05-10T14:18:50;17.80;75.40
38936;DHT22;66589;47.458;9.644;2023-05-10T14:21:15;17.80;75.00
38936;DHT22;66589;47.458;9.644;2023-05-10T14:23:41;17.90;75.20
38936;DHT22;66589;47.458;9.644;2023-05-10T14:26:07;17.90;73.40
38936;DHT22;66589;47.458;9.644;2023-05-10T14:28:33;17.80;73.60
38936;DHT22;66589;47.458;9.644;2023-05-10T14:30:58;17.80;74.10
38936;DHT22;66589;47.458;9.644;2023-05-10T14:33:24;17.70;75.10
38936;DHT22;66589;47.458;9.644;2023-05-10T14:35:50;17.70;73.30
38936;DHT22;66589;47.458;9.644;2023-05-10T14:38:16;17.80;73.90
38936;DHT22;66589;47.458;9.644;2023-05-10T14:40:42;17.80;73.50
38936;DHT22;66589;47.458;9.644;2023-05-10T14:43:08;17.70;73.40
38936;DHT22;66589;47.458;9.644;2023-05-10T14:45:34;17.50;74.90
38936;DHT22;66589;47.458;9.644;2023-05-10T14:48:00;17.40;74.60
38936;DHT22;66589;47.458;9.644;2023-05-10T14:50:30;17.30;74.50
38936;DHT22;66589;47.458;9.644;2023-05-10T14:52:56;17.30;74.60
38936;DHT22;66589;47.458;9.644;2023-05-10T14:55:21;17.40;76.80
38936;DHT22;66589;47.458;9.644;2023-05-10T14:57:47;17.40;75.40
38936;DHT22;66589;47.458;9.644;2023-05-10T15:00:15;17.50;75.00
38936;DHT22;66589;47.458;9.644;2023-05-10T15:02:41;17.50;74.40
38936;DHT22;66589;47.458;9.644;2023-05-10T15:05:07;17.40;75.20
38936;DHT22;66589;47.458;9.644;2023-05-10T15:07:33;17.30;75.40
38936;DHT22;66589;47.458;9.644;2023-05-10T15:09:58;17.30;74.50
38936;DHT22;66589;47.458;9.644;2023-05-10T15:12:24;17.30;75.60
38936;DHT22;66589;47.458;9.644;2023-05-10T15:14:50;17.20;74.30
38936;DHT22;66589;47.458;9.644;2023-05-10T15:17:15;17.20;75.70
38936;DHT22;66589;47.458;9.644;2023-05-10T15:19:41;17.30;75.90
38936;DHT22;66589;47.458;9.644;2023-05-10T15:22:08;17.30;76.90
38936;DHT22;66589;47.458;9.644;2023-05-10T15:24:34;17.30;76.90
38936;DHT22;66589;47.458;9.644;2023-05-10T15:26:59;17.30;75.60
38936;DHT22;66589;47.458;9.644;2023-05-10T15:29:26;17.20;76.80
38936;DHT22;66589;47.458;9.644;2023-05-10T15:31:51;17.20;76.70
38936;DHT22;66589;47.458;9.644;2023-05-10T15:34:18;17.20;75.80
38936;DHT22;66589;47.458;9.644;2023-05-10T15:36:44;17.00;76.90
38936;DHT22;66589;47.458;9.644;2023-05-10T15:39:10;16.90;77.40
38936;DHT22;66589;47.458;9.644;2023-05-10T15:41:36;16.90;77.00
38936;DHT22;66589;47.458;9.644;2023-05-10T15:44:02;17.00;77.60
38936;DHT22;66589;47.458;9.644;2023-05-10T15:46:28;16.90;77.20
38936;DHT22;66589;47.458;9.644;2023-05-10T15:48:54;16.70;78.70
38936;DHT22;66589;47.458;9.644;2023-05-10T15:51:20;16.70;79.00
38936;DHT22;66589;47.458;9.644;2023-05-10T15:53:46;16.70;79.40
38936;DHT22;66589;47.458;9.644;2023-05-10T15:56:11;16.70;79.60
38936;DHT22;66589;47.458;9.644;2023-05-10T15:58:38;16.60;77.70
38936;DHT22;66589;47.458;9.644;2023-05-10T16:01:03;16.50;78.60
38936;DHT22;66589;47.458;9.644;2023-05-10T16:03:30;16.40;78.60
38936;DHT22;66589;47.458;9.644;2023-05-10T16:05:56;16.50;80.20
38936;DHT22;66589;47.458;9.644;2023-05-10T16:08:22;16.50;78.90
38936;DHT22;66589;47.458;9.644;2023-05-10T16:10:49;16.40;80.10
38936;DHT22;66589;47.458;9.644;2023-05-10T16:13:16;16.50;80.00
38936;DHT22;66589;47.458;9.644;2023-05-10T16:15:42;16.60;78.90
38936;DHT22;66589;47.458;9.644;2023-05-10T16:18:08;16.50;78.10
38936;DHT22;66589;47.458;9.644;2023-05-10T16:20:34;16.40;78.60
38936;DHT22;66589;47.458;9.644;2023-05-10T16:23:04;16.30;78.70
38936;DHT22;66589;47.458;9.644;2023-05-10T16:25:30;16.30;78.40
38936;DHT22;66589;47.458;9.644;2023-05-10T16:27:56;16.10;77.80
38936;DHT22;66589;47.458;9.644;2023-05-10T16:30:22;16.10;78.50
38936;DHT22;66589;47.458;9.644;2023-05-10T16:32:55;16.00;78.30
38936;DHT22;66589;47.458;9.644;2023-05-10T16:35:21;16.00;77.60
38936;DHT22;66589;47.458;9.644;2023-05-10T16:37:48;16.00;78.20
38936;DHT22;66589;47.458;9.644;2023-05-10T16:40:14;16.00;78.40
38936;DHT22;66589;47.458;9.644;2023-05-10T16:42:39;16.00;78.10
38936;DHT22;66589;47.458;9.644;2023-05-10T16:45:06;16.00;78.40
38936;DHT22;66589;47.458;9.644;2023-05-10T16:47:36;16.00;78.60
38936;DHT22;66589;47.458;9.644;2023-05-10T16:50:03;15.90;76.50
38936;DHT22;66589;47.458;9.644;2023-05-10T16:52:30;15.80;76.20
38936;DHT22;66589;47.458;9.644;2023-05-10T16:54:57;15.70;76.30
38936;DHT22;66589;47.458;9.644;2023-05-10T16:57:23;15.50;76.00
38936;DHT22;66589;47.458;9.644;2023-05-10T16:59:49;15.50;76.30
38936;DHT22;66589;47.458;9.644;2023-05-10T17:02:21;15.50;76.40
38936;DHT22;66589;47.458;9.644;2023-05-10T17:04:47;15.40;76.60
38936;DHT22;66589;47.458;9.644;2023-05-10T17:07:13;15.40;76.30
38936;DHT22;66589;47.458;9.644;2023-05-10T17:09:41;15.40;75.20
38936;DHT22;66589;47.458;9.644;2023-05-10T17:12:07;15.30;74.30
38936;DHT22;66589;47.458;9.644;2023-05-10T17:14:32;15.20;73.80
38936;DHT22;66589;47.458;9.644;2023-05-10T17:16:58;15.10;74.00
38936;DHT22;66589;47.458;9.644;2023-05-10T17:19:24;15.20;73.70
38936;DHT22;66589;47.458;9.644;2023-05-10T17:21:50;15.10;74.00
38936;DHT22;66589;47.458;9.644;2023-05-10T17:24:16;15.10;72.70
38936;DHT22;66589;47.458;9.644;2023-05-10T17:26:41;15.10;73.60
38936;DHT22;66589;47.458;9.644;2023-05-10T17:29:07;15.10;73.50
38936;DHT22;66589;47.458;9.644;2023-05-10T17:31:33;15.10;72.80
38936;DHT22;66589;47.458;9.644;2023-05-10T17:33:59;15.10;76.00
38936;DHT22;66589;47.458;9.644;2023-05-10T17:36:24;15.10;75.00
38936;DHT22;66589;47.458;9.644;2023-05-10T17:38:50;15.10;73.50
38936;DHT22;66589;47.458;9.644;2023-05-10T17:41:16;15.10;73.60
38936;DHT22;66589;47.458;9.644;2023-05-10T17:43:42;15.10;74.50
38936;DHT22;66589;47.458;9.644;2023-05-10T17:46:08;15.10;74.20
38936;DHT22;66589;47.458;9.644;2023-05-10T17:48:34;15.00;73.80
38936;DHT22;66589;47.458;9.644;2023-05-10T17:51:02;15.00;74.40
38936;DHT22;66589;47.458;9.644;2023-05-10T17:53:28;15.10;75.30
38936;DHT22;66589;47.458;9.644;2023-05-10T17:55:54;15.00;74.90
38936;DHT22;66589;47.458;9.644;2023-05-10T17:58:23;14.90;75.40
38936;DHT22;66589;47.458;9.644;2023-05-10T18:00:51;14.90;75.60
38936;DHT22;66589;47.458;9.644;2023-05-10T18:03:16;14.80;76.00
38936;DHT22;66589;47.458;9.644;2023-05-10T18:05:42;14.70;76.30
38936;DHT22;66589;47.458;9.644;2023-05-10T18:08:08;14.70;76.40
38936;DHT22;66589;47.458;9.644;2023-05-10T18:10:35;14.70;76.90
38936;DHT22;66589;47.458;9.644;2023-05-10T18:13:01;14.60;77.30
38936;DHT22;66589;47.458;9.644;2023-05-10T18:15:32;14.50;76.30
38936;DHT22;66589;47.458;9.644;2023-05-10T18:18:01;14.50;77.30
38936;DHT22;66589;47.458;9.644;2023-05-10T18:20:27;14.50;77.20
38936;DHT22;66589;47.458;9.644;2023-05-10T18:22:54;14.40;77.60
38936;DHT22;66589;47.458;9.644;2023-05-10T18:25:20;14.30;77.20
38936;DHT22;66589;47.458;9.644;2023-05-10T18:27:45;14.20;78.30
38936;DHT22;66589;47.458;9.644;2023-05-10T18:30:12;14.20;78.50
38936;DHT22;66589;47.458;9.644;2023-05-10T18:32:38;14.20;77.90
38936;DHT22;66589;47.458;9.644;2023-05-10T18:35:05;14.10;77.70
38936;DHT22;66589;47.458;9.644;2023-05-10T18:37:31;14.10;77.30
38936;DHT22;66589;47.458;9.644;2023-05-10T18:39:57;14.00;78.30
38936;DHT22;66589;47.458;9.644;2023-05-10T18:42:23;14.00;78.60
38936;DHT22;66589;47.458;9.644;2023-05-10T18:44:49;14.00;78.00
38936;DHT22;66589;47.458;9.644;2023-05-10T18:47:15;13.90;78.60
38936;DHT22;66589;47.458;9.644;2023-05-10T18:49:40;13.80;79.30
38936;DHT22;66589;47.458;9.644;2023-05-10T18:52:06;13.80;79.90
38936;DHT22;66589;47.458;9.644;2023-05-10T18:54:32;13.70;80.60
38936;DHT22;66589;47.458;9.644;2023-05-10T18:56:57;13.60;80.60